Time;durP1;ratioP1;P1;durP2;ratioP2;P2;SDS_P1;SDS_P2;PMS_P1;PMS_P2;Temp;Humidity;BMP_temperature;BMP_pressure;BME280_temperature;BME280_humidity;BME280_pressure;Samples;Min_cycle;Max_cycle;Signal;HPM_P1;HPM_P2
2022/01/04 00:01:21;;;;;;;15.85;7.57;;;4.90;99.90;;;;;;5112044;28;20112;-62
2022/01/04 00:03:48;;;;;;;13.30;7.18;;;4.90;99.90;;;;;;5111863;28;20039;-63
2022/01/04 00:06:15;;;;;;;16.48;7.38;;;4.90;99.90;;;;;;5111444;28;20040;-63
2022/01/04 00:08:42;;;;;;;10.68;6.00;;;4.90;99.90;;;;;;5111502;28;20066;-63
2022/01/04 00:11:16;;;;;;;8.90;5.03;;;4.80;99.90;;;;;;5111913;28;20397;-62
2022/01/04 00:13:44;;;;;;;11.13;4.75;;;4.80;99.90;;;;;;5111748;28;20067;-62
2022/01/04 00:16:11;;;;;;;9.50;4.40;;;4.80;99.90;;;;;;5111421;28;20047;-62
2022/01/04 00:18:40;;;;;;;10.18;5.20;;;4.80;99.90;;;;;;5111577;28;20089;-62
2022/01/04 00:21:07;;;;;;;11.80;5.35;;;4.80;99.90;;;;;;5111704;28;20384;-62
2022/01/04 00:23:34;;;;;;;8.60;5.15;;;4.80;99.90;;;;;;5111543;28;20042;-63
2022/01/04 00:26:01;;;;;;;11.52;4.10;;;4.70;99.90;;;;;;5111253;28;20044;-62
2022/01/04 00:28:28;;;;;;;7.50;3.92;;;4.70;99.90;;;;;;5111590;28;20036;-62
2022/01/04 00:30:55;;;;;;;9.98;4.18;;;4.70;99.90;;;;;;5111573;28;20114;-62
2022/01/04 00:33:23;;;;;;;12.32;4.88;;;4.70;99.90;;;;;;5111395;28;20039;-63
2022/01/04 00:35:50;;;;;;;10.05;4.70;;;4.70;99.90;;;;;;5110993;28;20048;-63
2022/01/04 00:38:16;;;;;;;9.68;5.07;;;4.70;99.90;;;;;;5111425;28;20101;-63
2022/01/04 00:40:43;;;;;;;9.55;3.97;;;4.70;99.90;;;;;;5111493;28;20046;-60
2022/01/04 00:43:10;;;;;;;7.22;3.10;;;4.60;99.90;;;;;;5111276;28;20032;-63
2022/01/04 00:45:37;;;;;;;4.05;2.42;;;4.60;99.90;;;;;;5111078;28;20491;-60
2022/01/04 00:50:36;;;;;;;7.10;3.00;;;4.60;99.90;;;;;;5114805;28;20039;-62
2022/01/04 00:53:04;;;;;;;6.05;2.50;;;4.60;99.90;;;;;;5115166;28;20084;-62
2022/01/04 00:55:31;;;;;;;4.82;2.95;;;4.50;99.90;;;;;;5114805;28;20127;-60
2022/01/04 00:57:59;;;;;;;7.28;2.85;;;4.50;99.90;;;;;;5115026;28;20055;-62
2022/01/04 01:00:26;;;;;;;7.40;2.55;;;4.40;99.90;;;;;;5115065;28;20126;-62
2022/01/04 01:02:54;;;;;;;4.10;2.17;;;4.40;99.90;;;;;;5114836;28;20100;-63
2022/01/04 01:05:26;;;;;;;5.72;2.78;;;4.40;99.90;;;;;;5114665;28;20105;-62
2022/01/04 01:07:54;;;;;;;9.18;2.40;;;4.40;99.90;;;;;;5114802;28;20093;-62
2022/01/04 01:12:53;;;;;;;6.25;3.35;;;4.50;99.90;;;;;;5114865;28;20104;-62
2022/01/04 01:15:20;;;;;;;;;;;4.50;99.90;;;;;;5114834;28;20142;-62
2022/01/04 01:17:47;;;;;;;8.43;3.80;;;4.50;99.90;;;;;;5114571;28;19919;-62
2022/01/04 01:20:14;;;;;;;6.78;3.20;;;4.50;99.90;;;;;;5114951;28;20381;-63
2022/01/04 01:22:42;;;;;;;6.93;2.50;;;4.50;99.90;;;;;;5114468;28;20055;-62
2022/01/04 01:25:10;;;;;;;8.13;3.45;;;4.50;99.90;;;;;;5114464;28;20086;-63
2022/01/04 01:27:36;;;;;;;7.63;3.17;;;4.50;99.90;;;;;;5114473;28;20102;-62
2022/01/04 01:30:05;;;;;;;3.97;2.33;;;4.60;99.90;;;;;;5114167;28;20114;-62
2022/01/04 01:32:32;;;;;;;7.45;3.97;;;4.60;99.90;;;;;;5114423;28;20047;-62
2022/01/04 01:34:58;;;;;;;8.32;3.55;;;4.70;99.90;;;;;;5114481;28;20119;-63
2022/01/04 01:37:25;;;;;;;11.93;3.78;;;4.70;99.90;;;;;;5114009;28;20127;-62
2022/01/04 01:39:52;;;;;;;6.32;3.70;;;4.60;99.90;;;;;;5114112;28;20081;-62
2022/01/04 01:42:19;;;;;;;8.27;3.67;;;4.70;99.90;;;;;;5114293;28;20047;-62
2022/01/04 01:44:46;;;;;;;7.65;2.80;;;4.60;99.90;;;;;;5114175;28;20043;-62
2022/01/04 01:47:13;;;;;;;8.02;2.67;;;4.60;99.90;;;;;;5113878;28;20483;-62
2022/01/04 01:49:40;;;;;;;6.20;2.50;;;4.70;99.90;;;;;;5114180;28;20441;-63
2022/01/04 01:52:07;;;;;;;6.10;3.28;;;4.60;99.90;;;;;;5114151;28;20458;-62
2022/01/04 01:54:34;;;;;;;10.13;3.88;;;4.50;99.90;;;;;;5114147;28;20096;-62
2022/01/04 01:57:01;;;;;;;9.05;4.53;;;4.50;99.90;;;;;;5113652;28;20126;-62
2022/01/04 01:59:27;;;;;;;8.40;4.63;;;4.50;99.90;;;;;;5113469;28;20669;-62
2022/01/04 02:01:55;;;;;;;15.75;6.57;;;4.50;99.90;;;;;;5114026;28;20119;-63
2022/01/04 02:04:25;;;;;;;15.90;7.10;;;4.50;99.90;;;;;;5113620;28;20042;-62
2022/01/04 02:06:52;;;;;;;13.95;6.75;;;4.60;99.90;;;;;;5113380;28;20040;-62
2022/01/04 02:09:19;;;;;;;17.05;7.43;;;4.60;99.90;;;;;;5113664;28;20065;-62
2022/01/04 02:11:47;;;;;;;25.25;8.60;;;4.60;99.90;;;;;;5113445;28;20040;-62
2022/01/04 02:14:13;;;;;;;21.50;8.52;;;4.60;99.90;;;;;;5113710;28;20044;-62
2022/01/04 02:16:40;;;;;;;21.42;7.75;;;4.60;99.90;;;;;;5113257;28;20047;-62
2022/01/04 02:19:08;;;;;;;18.80;8.10;;;4.60;99.90;;;;;;5113695;28;20044;-63
2022/01/04 02:21:36;;;;;;;20.02;8.20;;;4.70;99.90;;;;;;5113520;28;20101;-63
2022/01/04 02:24:03;;;;;;;16.38;7.78;;;4.70;99.90;;;;;;5113262;28;20039;-62
2022/01/04 02:26:32;;;;;;;11.25;6.85;;;4.70;99.90;;;;;;5112942;28;20044;-62
2022/01/04 02:29:00;;;;;;;11.80;6.82;;;4.60;99.90;;;;;;5113401;28;20082;-62
2022/01/04 02:31:27;;;;;;;16.55;8.00;;;4.60;99.90;;;;;;5113393;28;20040;-62
2022/01/04 02:33:54;;;;;;;16.38;7.40;;;4.60;99.90;;;;;;5113490;28;20082;-60
2022/01/04 02:36:21;;;;;;;14.07;5.72;;;4.70;99.90;;;;;;5112813;28;20051;-62
2022/01/04 02:38:51;;;;;;;15.05;6.65;;;4.60;99.90;;;;;;5113002;28;20051;-62
2022/01/04 02:41:18;;;;;;;12.85;7.05;;;4.60;99.90;;;;;;5113261;28;20492;-62
2022/01/04 02:43:45;;;;;;;12.70;6.82;;;4.60;99.90;;;;;;5112969;28;20123;-62
2022/01/04 02:46:11;;;;;;;13.23;6.05;;;4.50;99.90;;;;;;5112798;28;20039;-62
2022/01/04 02:48:43;;;;;;;6.90;3.05;;;4.50;99.90;;;;;;5112974;28;20122;-63
2022/01/04 02:51:10;;;;;;;7.07;4.53;;;4.40;99.90;;;;;;5112664;28;20119;-62
2022/01/04 02:53:38;;;;;;;8.18;3.75;;;4.30;99.90;;;;;;5112894;28;20047;-60
2022/01/04 02:56:05;;;;;;;15.50;5.63;;;4.40;99.90;;;;;;5112520;28;20044;-63
2022/01/04 02:58:32;;;;;;;12.73;6.57;;;4.30;99.90;;;;;;5112805;28;20052;-60
2022/01/04 03:00:59;;;;;;;17.98;7.72;;;4.40;99.90;;;;;;5112753;28;20124;-60
2022/01/04 03:03:27;;;;;;;13.68;7.47;;;4.40;99.90;;;;;;5112519;28;20043;-62
2022/01/04 03:05:54;;;;;;;13.57;6.93;;;4.40;99.90;;;;;;5112128;28;20039;-62
2022/01/04 03:08:21;;;;;;;14.68;7.82;;;4.40;99.90;;;;;;5112407;28;20044;-62
2022/01/04 03:10:49;;;;;;;;;;;4.50;99.90;;;;;;5112870;28;20040;-62
2022/01/04 03:13:16;;;;;;;15.30;6.80;;;4.50;99.90;;;;;;5112052;28;20179;-63
2022/01/04 03:15:46;;;;;;;16.80;7.13;;;4.60;99.90;;;;;;5112125;28;20405;-63
2022/01/04 03:18:14;;;;;;;13.73;7.20;;;4.50;99.90;;;;;;5112438;28;20048;-62
2022/01/04 03:20:41;;;;;;;11.50;5.97;;;4.60;99.90;;;;;;5112154;28;20059;-62
2022/01/04 03:23:10;;;;;;;13.30;6.45;;;4.50;99.90;;;;;;5112433;28;20446;-63
2022/01/04 03:25:40;;;;;;;11.73;6.70;;;4.50;99.90;;;;;;5111976;28;20051;-63
2022/01/04 03:28:10;;;;;;;10.68;6.15;;;4.60;99.90;;;;;;5112329;28;20070;-62
2022/01/04 03:30:37;;;;;;;12.20;6.22;;;4.60;99.90;;;;;;5112102;28;20067;-62
2022/01/04 03:33:04;;;;;;;12.40;6.70;;;4.50;99.90;;;;;;5112094;28;20484;-62
2022/01/04 03:35:30;;;;;;;7.40;4.88;;;4.60;99.90;;;;;;5111830;28;20410;-62
2022/01/04 03:37:57;;;;;;;11.35;6.57;;;4.60;99.90;;;;;;5112310;28;20032;-62
2022/01/04 03:40:24;;;;;;;11.80;6.32;;;4.70;99.90;;;;;;5112120;28;20039;-63
2022/01/04 03:42:51;;;;;;;13.52;6.50;;;4.70;99.90;;;;;;5111481;28;20093;-62
2022/01/04 03:45:18;;;;;;;14.68;6.55;;;4.70;99.90;;;;;;5111364;28;20031;-62
2022/01/04 03:47:46;;;;;;;12.32;5.47;;;4.60;99.90;;;;;;5112029;28;20044;-63
2022/01/04 03:50:13;;;;;;;11.45;5.82;;;4.70;99.90;;;;;;5112070;28;20036;-62
2022/01/04 03:52:40;;;;;;;13.73;6.15;;;4.80;99.90;;;;;;5111822;28;20093;-62
2022/01/04 03:55:08;;;;;;;14.95;5.80;;;4.80;99.90;;;;;;5111851;28;20044;-62
2022/01/04 03:57:35;;;;;;;13.10;6.75;;;4.80;99.90;;;;;;5111876;28;20403;-62
2022/01/04 04:00:05;;;;;;;17.40;7.10;;;4.70;99.90;;;;;;5111848;28;20096;-62
2022/01/04 04:02:38;;;;;;;13.13;6.68;;;4.70;99.90;;;;;;5111989;28;20138;-62
2022/01/04 04:05:05;;;;;;;17.80;7.25;;;4.70;99.90;;;;;;5111683;28;20085;-62
2022/01/04 04:07:32;;;;;;;11.35;5.75;;;4.60;99.90;;;;;;5111486;28;20055;-62
2022/01/04 04:09:59;;;;;;;12.15;6.65;;;4.60;99.90;;;;;;5111879;28;20381;-60
2022/01/04 04:12:26;;;;;;;11.80;5.00;;;4.60;99.90;;;;;;5111821;28;20093;-63
2022/01/04 04:14:53;;;;;;;11.77;5.53;;;4.60;99.90;;;;;;5111649;28;20048;-62
2022/01/04 04:17:20;;;;;;;11.35;5.45;;;4.60;99.90;;;;;;5111456;28;20051;-62
2022/01/04 04:19:47;;;;;;;7.53;5.22;;;4.70;99.90;;;;;;5111714;28;20552;-62
2022/01/04 04:22:13;;;;;;;10.73;5.30;;;4.70;99.90;;;;;;5112043;28;20047;-62
2022/01/04 04:24:41;;;;;;;9.60;4.53;;;4.70;99.90;;;;;;5115619;28;20060;-63
2022/01/04 04:27:08;;;;;;;9.65;4.50;;;4.80;99.90;;;;;;5115322;28;20092;-62
2022/01/04 04:29:35;;;;;;;6.72;4.43;;;4.80;99.90;;;;;;5115605;28;20036;-62
2022/01/04 04:32:03;;;;;;;6.95;4.13;;;4.90;99.90;;;;;;5115729;28;20067;-63
2022/01/04 04:34:30;;;;;;;9.23;4.38;;;4.90;99.90;;;;;;5115553;28;20055;-62
2022/01/04 04:36:57;;;;;;;8.40;4.30;;;5.00;99.90;;;;;;5115102;28;20130;-62
2022/01/04 04:39:24;;;;;;;9.43;4.50;;;4.90;99.90;;;;;;5115543;28;20043;-62
2022/01/04 04:41:52;;;;;;;9.63;5.22;;;5.00;99.90;;;;;;5115385;28;20082;-60
2022/01/04 04:44:19;;;;;;;10.70;4.78;;;5.00;99.90;;;;;;5115369;28;20122;-62
2022/01/04 04:46:46;;;;;;;13.35;5.60;;;4.90;99.90;;;;;;5114779;28;20050;-63
2022/01/04 04:49:13;;;;;;;9.98;5.10;;;4.90;99.90;;;;;;5115415;28;20043;-60
2022/01/04 04:51:40;;;;;;;10.95;5.40;;;5.00;99.90;;;;;;5115256;28;20496;-63
2022/01/04 04:54:07;;;;;;;9.32;5.60;;;5.00;99.90;;;;;;5115026;28;20139;-62
2022/01/04 04:56:38;;;;;;;9.02;5.20;;;5.00;99.90;;;;;;5114876;28;20097;-62
2022/01/04 04:59:09;;;;;;;11.00;5.35;;;5.00;99.90;;;;;;5115177;28;20071;-62
2022/01/04 05:01:36;;;;;;;11.00;5.95;;;5.10;99.90;;;;;;5115146;28;20047;-62
2022/01/04 05:04:04;;;;;;;14.50;5.30;;;5.10;99.90;;;;;;5115000;28;20069;-62
2022/01/04 05:06:31;;;;;;;9.65;5.07;;;5.00;99.90;;;;;;5114436;28;20122;-62
2022/01/04 05:08:58;;;;;;;15.43;5.30;;;5.10;99.90;;;;;;5114807;28;20040;-60
2022/01/04 05:11:38;;;;;;;8.98;5.03;;;5.10;99.90;;;;;;5129938;22;20131;-63
2022/01/04 05:14:30;;;;;;;13.35;6.32;;;5.10;99.90;;;;;;5114643;28;20518;-61
2022/01/04 05:16:57;;;;;;;10.55;4.97;;;5.20;99.90;;;;;;5103473;28;20075;-63
2022/01/04 05:19:24;;;;;;;10.43;5.50;;;5.20;99.90;;;;;;5094397;28;20051;-63
2022/01/04 05:21:50;;;;;;;11.35;6.30;;;5.20;99.90;;;;;;5094159;28;20142;-64
2022/01/04 05:24:17;;;;;;;10.65;5.53;;;5.20;99.90;;;;;;5094301;28;20385;-63
2022/01/04 05:26:44;;;;;;;16.02;5.95;;;5.10;99.90;;;;;;5093662;28;20587;-63
2022/01/04 05:29:11;;;;;;;10.85;5.72;;;5.10;99.90;;;;;;5094207;28;20488;-63
2022/01/04 05:31:38;;;;;;;11.05;6.95;;;5.00;99.90;;;;;;5094045;28;20492;-63
2022/01/04 05:34:05;;;;;;;10.43;5.72;;;5.00;99.90;;;;;;5093594;28;20059;-63
2022/01/04 05:36:32;;;;;;;11.55;6.72;;;5.00;99.90;;;;;;5093400;28;20447;-63
2022/01/04 05:39:00;;;;;;;10.05;5.10;;;5.10;99.90;;;;;;5093871;28;20043;-63
2022/01/04 05:41:27;;;;;;;9.70;5.65;;;5.00;99.90;;;;;;5093933;28;20043;-63
2022/01/04 05:43:54;;;;;;;10.02;6.15;;;5.10;99.90;;;;;;5093850;28;20044;-63
2022/01/04 05:46:21;;;;;;;11.32;6.00;;;5.00;99.90;;;;;;5093463;28;20446;-63
2022/01/04 05:48:48;;;;;;;11.90;5.78;;;5.00;99.90;;;;;;5093775;28;20126;-63
2022/01/04 05:51:15;;;;;;;11.68;6.28;;;5.00;99.90;;;;;;5093762;28;20155;-63
2022/01/04 05:53:42;;;;;;;14.77;6.65;;;4.90;99.90;;;;;;5093548;28;20123;-63
2022/01/04 05:56:10;;;;;;;13.70;6.50;;;4.90;99.90;;;;;;5093406;28;20040;-63
2022/01/04 05:58:36;;;;;;;11.93;5.72;;;4.90;99.90;;;;;;5094001;28;20044;-63
2022/01/04 06:01:03;;;;;;;11.57;6.10;;;4.90;99.90;;;;;;5093547;28;20055;-63
2022/01/04 06:03:30;;;;;;;9.55;6.25;;;5.00;99.90;;;;;;5093644;28;20143;-63
2022/01/04 06:05:59;;;;;;;11.75;6.60;;;4.90;99.90;;;;;;5092946;28;20048;-63
2022/01/04 06:08:33;;;;;;;12.48;6.40;;;4.90;99.90;;;;;;5093391;28;20078;-63
2022/01/04 06:11:01;;;;;;;13.65;6.90;;;4.80;99.90;;;;;;5093279;28;20051;-63
2022/01/04 06:16:14;;;;;;;12.70;6.47;;;4.90;99.90;;;;;;5092969;28;20060;-63
2022/01/04 06:18:42;;;;;;;12.65;6.45;;;4.90;99.90;;;;;;5093211;28;20442;-63
2022/01/04 06:21:11;;;;;;;14.95;7.32;;;4.90;99.90;;;;;;5093270;28;20076;-63
2022/01/04 06:23:38;;;;;;;11.35;5.40;;;4.80;99.90;;;;;;5093173;28;20044;-63
2022/01/04 06:26:05;;;;;;;10.15;5.50;;;4.90;99.90;;;;;;5092469;28;20036;-63
2022/01/04 06:28:32;;;;;;;11.52;5.78;;;4.90;99.90;;;;;;5093040;28;20055;-63
2022/01/04 06:30:59;;;;;;;10.25;5.43;;;5.00;99.90;;;;;;5092835;28;20050;-63
2022/01/04 06:33:26;;;;;;;12.80;6.70;;;5.00;99.90;;;;;;5099067;28;20368;-64
2022/01/04 06:35:53;;;;;;;18.45;8.70;;;5.00;99.90;;;;;;5102610;28;20072;-63
2022/01/04 06:38:20;;;;;;;18.55;9.13;;;5.00;99.90;;;;;;5113045;28;20089;-63
2022/01/04 06:40:47;;;;;;;14.15;7.88;;;5.00;99.90;;;;;;5113325;28;20402;-63
2022/01/04 06:43:14;;;;;;;12.18;6.85;;;5.00;99.90;;;;;;5113032;28;20047;-63
2022/01/04 06:45:41;;;;;;;12.50;6.78;;;5.00;99.90;;;;;;5112545;28;20039;-63
2022/01/04 06:48:09;;;;;;;13.52;6.85;;;5.00;99.90;;;;;;5112030;28;20040;-63
2022/01/04 06:50:36;;;;;;;11.38;7.03;;;5.00;99.90;;;;;;5112948;28;20523;-63
2022/01/04 06:53:03;;;;;;;15.80;8.15;;;5.00;99.90;;;;;;5113040;28;20046;-63
2022/01/04 06:55:30;;;;;;;13.95;7.50;;;5.00;99.90;;;;;;5111646;28;20551;-63
2022/01/04 06:57:57;;;;;;;17.95;10.20;;;5.00;99.90;;;;;;5112749;28;20040;-63
2022/01/04 07:00:24;;;;;;;60.55;24.70;;;5.00;99.90;;;;;;5112685;28;20040;-63
2022/01/04 07:02:51;;;;;;;30.90;13.70;;;5.00;99.90;;;;;;5112978;28;20055;-63
2022/01/04 07:05:18;;;;;;;19.27;10.10;;;5.00;99.90;;;;;;5112213;28;20043;-63
2022/01/04 07:07:45;;;;;;;16.75;9.07;;;5.00;99.90;;;;;;5112760;28;20400;-63
2022/01/04 07:10:12;;;;;;;19.35;9.45;;;5.00;99.90;;;;;;5112363;28;20039;-63
2022/01/04 07:12:39;;;;;;;16.60;9.27;;;5.10;99.90;;;;;;5112493;28;20043;-63
2022/01/04 07:15:06;;;;;;;18.58;9.95;;;5.10;99.90;;;;;;5112521;28;20454;-63
2022/01/04 07:17:37;;;;;;;;;;;5.20;99.90;;;;;;5112807;28;20048;-63
2022/01/04 07:20:04;;;;;;;15.48;8.75;;;5.20;99.90;;;;;;5112606;28;20264;-63
2022/01/04 07:22:31;;;;;;;14.63;8.57;;;5.20;99.90;;;;;;5109741;28;20119;-63
2022/01/04 07:24:58;;;;;;;15.38;8.02;;;5.20;99.90;;;;;;5080561;28;20036;-63
2022/01/04 07:27:25;;;;;;;15.63;8.18;;;5.30;99.90;;;;;;5082052;28;20094;-63
2022/01/04 07:29:51;;;;;;;15.95;8.65;;;5.40;99.90;;;;;;5081259;28;20029;-63
2022/01/04 07:32:18;;;;;;;25.88;11.85;;;5.40;99.90;;;;;;5086358;28;20032;-63
2022/01/04 07:34:45;;;;;;;18.83;9.73;;;5.50;99.90;;;;;;5086134;28;20047;-63
2022/01/04 07:37:14;;;;;;;18.35;9.13;;;5.50;99.90;;;;;;5075835;28;20457;-63
2022/01/04 07:39:41;;;;;;;16.77;8.25;;;5.50;99.90;;;;;;5081671;28;20052;-63
2022/01/04 07:42:08;;;;;;;15.05;7.68;;;5.50;99.90;;;;;;5085680;28;20123;-63
2022/01/04 07:44:35;;;;;;;18.42;8.52;;;5.50;99.90;;;;;;5087863;28;20051;-63
2022/01/04 07:47:02;;;;;;;17.50;9.18;;;5.50;99.90;;;;;;5082213;28;20072;-63
2022/01/04 07:49:29;;;;;;;17.05;9.20;;;5.50;99.90;;;;;;5088300;28;20062;-63
2022/01/04 07:51:56;;;;;;;17.92;9.00;;;5.50;99.90;;;;;;5091836;28;20496;-63
2022/01/04 07:54:23;;;;;;;27.77;11.18;;;5.60;99.90;;;;;;5085627;28;20443;-63
2022/01/04 07:56:51;;;;;;;17.17;8.20;;;5.60;99.90;;;;;;5073736;28;20459;-63
2022/01/04 07:59:18;;;;;;;22.88;8.70;;;5.60;99.90;;;;;;5055859;28;20400;-63
2022/01/04 08:01:45;;;;;;;19.50;9.23;;;5.60;99.90;;;;;;5071229;28;20052;-63
2022/01/04 08:04:12;;;;;;;21.58;8.82;;;5.60;99.90;;;;;;5071251;28;20041;-63
2022/01/04 08:06:39;;;;;;;19.63;8.85;;;5.70;99.90;;;;;;5073472;28;20135;-64
2022/01/04 08:09:06;;;;;;;18.30;8.45;;;5.60;99.90;;;;;;5071311;28;20051;-63
2022/01/04 08:11:33;;;;;;;13.25;7.55;;;5.60;99.90;;;;;;5071294;28;20045;-63
2022/01/04 08:14:00;;;;;;;16.27;8.48;;;5.60;99.90;;;;;;5071183;28;20071;-63
2022/01/04 08:16:27;;;;;;;15.55;7.45;;;5.60;99.90;;;;;;5070872;28;20048;-63
2022/01/04 08:18:53;;;;;;;13.35;7.53;;;5.60;99.90;;;;;;5071238;28;20072;-63
2022/01/04 08:21:35;;;;;;;14.73;7.53;;;5.60;99.90;;;;;;5071285;28;20045;-63
2022/01/04 08:24:02;;;;;;;14.40;7.65;;;5.50;99.90;;;;;;5071277;28;20121;-63
2022/01/04 08:26:29;;;;;;;20.90;10.80;;;5.50;99.90;;;;;;5070413;28;20788;-63
2022/01/04 08:28:57;;;;;;;25.20;11.40;;;5.50;99.90;;;;;;5071092;28;20132;-63
2022/01/04 08:31:25;;;;;;;25.20;12.07;;;5.50;99.90;;;;;;5070888;28;20044;-63
2022/01/04 08:33:53;;;;;;;20.00;10.50;;;5.50;99.90;;;;;;5071031;28;20041;-63
2022/01/04 08:36:26;;;;;;;28.30;13.60;;;5.50;99.90;;;;;;5070621;28;20048;-63
2022/01/04 08:38:54;;;;;;;34.65;16.98;;;5.40;99.90;;;;;;5071049;28;20546;-63
2022/01/04 08:41:21;;;;;;;15.52;6.45;;;5.40;99.90;;;;;;5070973;28;20048;-63
2022/01/04 08:43:48;;;;;;;13.82;7.03;;;5.40;99.90;;;;;;5070886;28;20055;-63
2022/01/04 08:46:15;;;;;;;17.45;7.55;;;5.40;99.90;;;;;;5076959;28;20383;-63
2022/01/04 08:48:41;;;;;;;18.30;8.90;;;5.40;99.90;;;;;;5073605;28;20087;-63
2022/01/04 08:51:08;;;;;;;28.63;13.70;;;5.40;99.90;;;;;;5070869;28;20493;-63
2022/01/04 08:53:35;;;;;;;25.75;12.63;;;5.40;99.90;;;;;;5070960;28;20068;-63
2022/01/04 08:56:04;;;;;;;15.95;8.77;;;5.30;99.90;;;;;;5070390;28;20052;-63
2022/01/04 08:58:31;;;;;;;19.50;8.15;;;5.30;99.90;;;;;;5070720;28;20079;-63
2022/01/04 09:00:58;;;;;;;14.23;7.60;;;5.30;99.90;;;;;;5070802;28;20044;-63
2022/01/04 09:03:25;;;;;;;14.52;8.18;;;5.30;99.90;;;;;;5070452;28;20124;-63
2022/01/04 09:05:52;;;;;;;17.45;9.60;;;5.20;99.90;;;;;;5070414;28;20048;-63
2022/01/04 09:08:19;;;;;;;;;;;5.30;99.90;;;;;;5053376;28;20459;-63
2022/01/04 09:10:46;;;;;;;21.42;11.27;;;5.30;99.90;;;;;;5072612;28;19927;-63
2022/01/04 09:13:17;;;;;;;19.45;11.52;;;5.30;99.90;;;;;;5074266;28;20044;-63
2022/01/04 09:18:43;;;;;;;17.70;10.48;;;5.40;99.90;;;;;;5073994;28;20580;-63
2022/01/04 09:21:28;;;;;;;17.88;9.63;;;5.40;99.90;;;;;;5073985;28;20056;-63
2022/01/04 09:23:59;;;;;;;16.88;9.32;;;5.50;99.90;;;;;;5074052;28;20485;-63
2022/01/04 09:26:27;;;;;;;21.48;9.80;;;5.60;99.90;;;;;;5073662;28;20040;-63
2022/01/04 09:28:55;;;;;;;20.13;8.77;;;5.60;99.90;;;;;;5081631;28;20094;-63
2022/01/04 09:31:26;;;;;;;15.90;8.38;;;5.70;99.90;;;;;;5081025;28;20032;-63
2022/01/04 09:33:55;;;;;;;19.52;8.82;;;5.90;99.90;;;;;;5093951;28;20048;-63
2022/01/04 09:36:34;;;;;;;30.85;15.05;;;6.00;99.90;;;;;;5083390;28;20092;-63
2022/01/04 09:39:02;;;;;;;18.10;10.00;;;6.10;99.90;;;;;;5084466;28;20040;-64
2022/01/04 09:41:29;;;;;;;19.60;9.68;;;6.10;99.90;;;;;;5085657;28;20043;-63
2022/01/04 09:43:57;;;;;;;24.88;10.98;;;6.20;99.90;;;;;;5093896;28;20044;-63
2022/01/04 09:46:25;;;;;;;25.02;12.23;;;6.40;99.90;;;;;;5093222;28;20054;-63
2022/01/04 09:48:52;;;;;;;20.10;11.75;;;6.50;99.90;;;;;;5093907;28;20036;-63
2022/01/04 09:51:20;;;;;;;22.02;10.95;;;6.50;99.90;;;;;;5093739;28;20492;-63
2022/01/04 09:53:48;;;;;;;14.52;9.00;;;6.60;99.90;;;;;;5084988;28;20072;-63
2022/01/04 09:56:15;;;;;;;16.55;8.70;;;6.50;99.90;;;;;;5073044;28;20047;-63
2022/01/04 09:58:42;;;;;;;17.75;7.85;;;6.40;99.90;;;;;;5081127;28;20070;-63
2022/01/04 10:01:37;;;;;;;18.92;7.45;;;6.40;99.90;;;;;;5084450;28;20813;-63
2022/01/04 10:04:24;;;;;;;12.77;6.22;;;6.50;99.90;;;;;;5073045;28;20512;-63
2022/01/04 10:06:57;;;;;;;11.25;6.43;;;6.70;99.90;;;;;;5072820;28;20037;-63
2022/01/04 10:09:45;;;;;;;12.70;6.53;;;6.90;99.90;;;;;;5073260;28;20085;-64
2022/01/04 10:12:15;;;;;;;11.98;6.68;;;7.10;99.90;;;;;;5078727;28;20394;-64
2022/01/04 10:14:48;;;;;;;12.93;5.38;;;7.20;99.90;;;;;;5072894;28;20051;-64
2022/01/04 10:17:21;;;;;;;17.30;7.13;;;7.30;99.90;;;;;;5077988;28;20048;-64
2022/01/04 10:19:51;;;;;;;15.07;6.68;;;7.10;99.90;;;;;;5093074;28;20063;-63
2022/01/04 10:22:23;;;;;;;13.25;6.82;;;7.10;99.90;;;;;;5092832;28;20047;-63
2022/01/04 10:25:03;;;;;;;12.45;6.72;;;7.20;99.90;;;;;;5093047;28;20044;-64
2022/01/04 10:27:48;;;;;;;12.20;5.97;;;7.30;99.90;;;;;;5092827;28;20047;-63
2022/01/04 10:30:28;;;;;;;14.68;6.63;;;7.40;99.90;;;;;;5086262;28;20155;-64
2022/01/04 10:33:04;;;;;;;12.07;6.68;;;7.30;99.90;;;;;;5072796;28;20119;-63
2022/01/04 10:35:33;;;;;;;15.23;7.40;;;7.30;99.90;;;;;;5087878;28;20059;-63
2022/01/04 10:38:10;;;;;;;11.25;6.10;;;7.40;99.90;;;;;;5092663;28;20377;-63
2022/01/04 10:40:38;;;;;;;14.07;6.97;;;7.50;99.90;;;;;;5092700;28;20655;-64
2022/01/04 10:43:16;;;;;;;16.38;7.47;;;7.50;99.90;;;;;;5092784;28;20048;-63
2022/01/04 10:45:44;;;;;;;27.80;12.98;;;7.50;99.90;;;;;;5092297;28;20090;-63
2022/01/04 10:48:27;;;;;;;16.55;7.80;;;7.60;99.90;;;;;;5087590;28;20042;-63
2022/01/04 10:51:08;;;;;;;18.10;7.00;;;7.80;99.90;;;;;;5082183;28;20036;-64
2022/01/04 10:54:00;;;;;;;10.02;6.05;;;7.90;99.90;;;;;;5082116;28;20039;-63
2022/01/04 10:56:32;;;;;;;11.73;5.55;;;7.90;99.90;;;;;;5083860;28;20040;-64
2022/01/04 10:59:03;;;;;;;12.93;6.10;;;7.90;99.90;;;;;;5087843;28;20060;-64
2022/01/04 11:01:43;;;;;;;11.10;6.18;;;7.90;99.90;;;;;;5074068;28;20063;-64
2022/01/04 11:04:13;;;;;;;12.68;6.10;;;7.90;99.90;;;;;;5071706;28;20115;-64
2022/01/04 11:06:41;;;;;;;12.30;5.20;;;7.90;99.90;;;;;;5071048;28;20083;-64
2022/01/04 11:09:09;;;;;;;11.10;6.13;;;8.20;99.90;;;;;;5071590;28;20392;-63
2022/01/04 11:11:36;;;;;;;12.57;5.20;;;8.50;99.90;;;;;;5071118;28;20056;-64
2022/01/04 11:14:03;;;;;;;12.68;5.50;;;8.70;99.90;;;;;;5079118;28;20036;-64
2022/01/04 11:16:31;;;;;;;10.05;5.30;;;9.00;99.90;;;;;;5078875;28;20044;-64
2022/01/04 11:18:59;;;;;;;12.90;5.90;;;9.20;99.90;;;;;;5078348;28;20036;-64
2022/01/04 11:21:31;;;;;;;12.90;5.90;;;9.20;99.90;;;;;;5080729;28;20032;-63
2022/01/04 11:24:01;;;;;;;13.88;5.78;;;9.20;99.90;;;;;;5080639;28;20039;-63
2022/01/04 11:26:28;;;;;;;13.43;5.38;;;9.20;99.90;;;;;;5080364;28;20035;-63
2022/01/04 11:28:56;;;;;;;10.25;5.35;;;9.50;99.90;;;;;;5079720;28;20067;-63
2022/01/04 11:31:45;;;;;;;10.60;5.20;;;9.50;99.90;;;;;;5080704;28;20099;-64
2022/01/04 11:34:17;;;;;;;10.23;4.28;;;9.60;99.90;;;;;;5081523;28;20107;-64
2022/01/04 11:36:49;;;;;;;11.10;5.13;;;9.60;99.90;;;;;;5080211;28;20127;-64
2022/01/04 11:39:29;;;;;;;11.73;5.18;;;9.80;99.90;;;;;;5079982;28;20072;-64
2022/01/04 11:41:58;;;;;;;13.38;5.18;;;9.80;99.90;;;;;;5080767;28;20127;-63
2022/01/04 11:44:28;;;;;;;12.75;5.22;;;9.80;99.90;;;;;;5082870;28;20052;-64
2022/01/04 11:46:59;;;;;;;8.77;4.47;;;9.80;99.90;;;;;;5082608;28;20037;-63
2022/01/04 11:49:27;;;;;;;15.68;4.85;;;9.80;99.90;;;;;;5083905;28;20090;-64
2022/01/04 11:51:53;;;;;;;10.73;4.85;;;9.80;99.90;;;;;;5077261;28;20044;-64
2022/01/04 11:54:28;;;;;;;12.00;5.03;;;9.80;99.90;;;;;;5071504;28;20147;-64
2022/01/04 11:56:58;;;;;;;12.57;5.57;;;9.70;99.90;;;;;;5074384;28;20062;-64
2022/01/04 11:59:36;;;;;;;8.88;5.18;;;9.70;99.90;;;;;;5084992;28;20098;-64
2022/01/04 12:02:32;;;;;;;13.02;5.45;;;9.70;99.90;;;;;;5086628;28;20050;-64
2022/01/04 12:05:10;;;;;;;12.63;4.78;;;9.70;99.90;;;;;;5084508;28;20118;-64
2022/01/04 12:07:44;;;;;;;8.23;5.10;;;9.70;99.90;;;;;;5079518;28;20048;-64
2022/01/04 12:10:20;;;;;;;8.35;4.97;;;9.70;99.90;;;;;;5075490;28;20040;-64
2022/01/04 12:13:06;;;;;;;6.85;4.00;;;9.70;99.90;;;;;;5088525;28;20511;-64
2022/01/04 12:15:33;;;;;;;11.00;4.45;;;9.60;99.90;;;;;;5081002;28;20471;-64
2022/01/04 12:18:05;;;;;;;7.50;3.97;;;9.70;99.90;;;;;;5079817;28;20075;-65
2022/01/04 12:20:41;;;;;;;7.80;4.18;;;9.70;99.90;;;;;;5088159;28;20127;-65
2022/01/04 12:23:25;;;;;;;12.23;4.60;;;9.90;99.90;;;;;;5081937;28;20032;-64
2022/01/04 12:26:08;;;;;;;11.25;4.30;;;10.00;99.90;;;;;;5080687;28;20075;-65
2022/01/04 12:28:37;;;;;;;8.68;3.97;;;10.10;99.90;;;;;;5081618;28;20040;-65
2022/01/04 12:31:15;;;;;;;8.75;4.50;;;10.20;99.90;;;;;;5079627;28;20048;-64
2022/01/04 12:33:46;;;;;;;;;;;10.30;99.90;;;;;;5080405;28;20029;-64
2022/01/04 12:36:36;;;;;;;13.07;3.92;;;10.30;99.90;;;;;;5077739;28;19921;-64
2022/01/04 12:39:10;;;;;;;20.50;5.20;;;10.30;99.90;;;;;;5071094;28;20048;-64
2022/01/04 12:41:38;;;;;;;9.73;5.07;;;10.30;99.90;;;;;;5075124;28;20044;-64
2022/01/04 12:44:11;;;;;;;10.75;4.55;;;10.30;99.90;;;;;;5081403;28;20481;-64
2022/01/04 12:46:41;;;;;;;11.15;4.70;;;10.30;99.90;;;;;;5083621;28;20066;-64
2022/01/04 12:49:14;;;;;;;13.43;5.43;;;10.20;99.90;;;;;;5083269;28;20056;-64
2022/01/04 12:51:44;;;;;;;11.02;4.88;;;10.20;99.90;;;;;;5083538;28;20109;-64
2022/01/04 12:54:16;;;;;;;8.68;4.55;;;10.20;99.90;;;;;;5092517;28;20051;-64
2022/01/04 12:56:54;;;;;;;7.30;4.03;;;10.30;99.90;;;;;;5094517;28;20119;-64
2022/01/04 12:59:24;;;;;;;12.85;4.63;;;10.40;99.90;;;;;;5082487;28;20048;-64
2022/01/04 13:01:54;;;;;;;10.25;4.28;;;10.50;99.90;;;;;;5079253;28;20055;-64
2022/01/04 13:04:23;;;;;;;9.70;3.83;;;10.50;99.90;;;;;;5082220;28;20043;-64
2022/01/04 13:06:51;;;;;;;11.25;4.13;;;10.50;99.90;;;;;;5082710;28;20037;-62
2022/01/04 13:09:23;;;;;;;6.50;3.90;;;10.60;99.90;;;;;;5080885;28;20037;-62